createdAt,value
2018-07-13T00:01:06.010Z,15.23
2018-07-13T00:03:37.108Z,17.10
2018-07-13T00:06:08.214Z,14.57
2018-07-13T00:08:39.846Z,15.63
2018-07-13T00:11:10.059Z,11.93
2018-07-13T00:14:20.880Z,12.07
2018-07-13T00:16:53.833Z,18.67
2018-07-13T00:19:25.149Z,13.10
2018-07-13T00:21:57.096Z,14.60
2018-07-13T00:24:28.102Z,22.00
2018-07-13T00:26:58.918Z,18.43
2018-07-13T00:29:29.873Z,13.00
2018-07-13T00:32:00.560Z,14.00
2018-07-13T00:34:32.152Z,14.40
2018-07-13T00:37:03.284Z,13.67
2018-07-13T00:39:34.268Z,16.23
2018-07-13T00:42:04.856Z,14.77
2018-07-13T00:44:35.728Z,12.70
2018-07-13T00:47:06.733Z,14.67
2018-07-13T00:49:38.044Z,14.03
2018-07-13T00:52:08.905Z,16.77
2018-07-13T00:54:39.657Z,14.10
2018-07-13T00:57:10.972Z,16.83
2018-07-13T00:59:41.794Z,22.20
2018-07-13T01:02:12.496Z,20.10
2018-07-13T01:04:43.814Z,25.43
2018-07-13T01:07:14.763Z,23.70
2018-07-13T01:09:45.936Z,16.27
2018-07-13T01:12:16.977Z,24.80
2018-07-13T01:14:48.572Z,19.93
2018-07-13T01:17:23.099Z,17.87
2018-07-13T01:19:54.068Z,17.97
2018-07-13T01:22:25.333Z,24.13
2018-07-13T01:24:55.985Z,18.77
2018-07-13T01:27:28.601Z,20.70
2018-07-13T01:29:59.810Z,19.50
2018-07-13T01:32:30.601Z,20.57
2018-07-13T01:35:01.862Z,19.90
2018-07-13T01:37:32.632Z,18.67
2018-07-13T01:40:03.563Z,18.80
2018-07-13T01:42:35.391Z,17.70
2018-07-13T01:45:07.029Z,18.43
2018-07-13T01:47:37.674Z,18.10
2018-07-13T01:50:08.660Z,21.70
2018-07-13T01:52:39.326Z,21.17
2018-07-13T01:55:10.146Z,18.80
2018-07-13T01:57:40.999Z,18.00
2018-07-13T02:00:12.110Z,28.37
2018-07-13T02:02:43.354Z,17.23
2018-07-13T02:05:14.204Z,14.00
2018-07-13T02:07:45.298Z,19.90
2018-07-13T02:10:16.039Z,18.17
2018-07-13T02:12:46.814Z,19.40
2018-07-13T02:15:17.716Z,19.00
2018-07-13T02:17:53.179Z,16.00
2018-07-13T02:20:23.978Z,16.60
2018-07-13T02:22:54.167Z,19.23
2018-07-13T02:25:24.801Z,20.87
2018-07-13T02:27:55.408Z,21.87
2018-07-13T02:30:25.984Z,18.50
2018-07-13T02:32:57.550Z,21.77
2018-07-13T02:35:28.319Z,22.10
2018-07-13T02:37:59.077Z,16.47
2018-07-13T02:40:30.280Z,23.30
2018-07-13T02:43:01.026Z,25.27
2018-07-13T02:45:31.892Z,23.27
2018-07-13T02:48:02.682Z,23.03
2018-07-13T02:50:33.284Z,25.70
2018-07-13T02:53:03.799Z,23.53
2018-07-13T02:55:34.519Z,29.00
2018-07-13T02:58:05.210Z,25.60
2018-07-13T03:00:36.284Z,16.43
2018-07-13T03:03:07.187Z,24.30
2018-07-13T03:05:39.046Z,18.27
2018-07-13T03:08:09.728Z,21.03
2018-07-13T03:10:42.123Z,20.37
2018-07-13T03:13:13.059Z,21.20
2018-07-13T03:15:43.733Z,21.30
2018-07-13T03:18:15.159Z,23.40
2018-07-13T03:20:45.767Z,25.23
2018-07-13T03:23:16.742Z,23.13
2018-07-13T03:25:49.715Z,23.93
2018-07-13T03:28:20.299Z,26.93
2018-07-13T03:30:52.066Z,35.00
2018-07-13T03:33:23.362Z,24.00
2018-07-13T03:35:54.169Z,28.33
2018-07-13T03:38:25.573Z,23.43
2018-07-13T03:40:57.143Z,25.00
2018-07-13T03:43:27.926Z,28.93
2018-07-13T03:45:58.645Z,30.17
2018-07-13T03:48:29.530Z,23.20
2018-07-13T03:51:00.397Z,24.37
2018-07-13T03:53:31.102Z,22.07
2018-07-13T03:56:01.918Z,23.83
2018-07-13T03:58:32.974Z,24.67
2018-07-13T04:01:03.752Z,29.63
2018-07-13T04:03:35.587Z,29.07
2018-07-13T04:06:06.682Z,36.40
2018-07-13T04:08:37.239Z,36.40
2018-07-13T04:11:08.058Z,25.30
2018-07-13T04:13:39.197Z,33.73
2018-07-13T04:16:10.035Z,30.37
2018-07-13T04:18:40.771Z,32.23
2018-07-13T04:21:11.686Z,29.17
2018-07-13T04:23:43.058Z,32.50
2018-07-13T04:26:14.438Z,23.93
2018-07-13T04:28:45.307Z,38.90
2018-07-13T04:31:16.032Z,37.33
2018-07-13T04:33:47.172Z,31.70
2018-07-13T04:36:26.783Z,30.60
2018-07-13T04:39:00.972Z,30.13
2018-07-13T04:41:34.030Z,33.70
2018-07-13T04:44:07.809Z,22.43
2018-07-13T04:46:41.371Z,26.70
2018-07-13T04:49:15.371Z,32.40
2018-07-13T04:51:46.547Z,41.17
2018-07-13T04:54:17.490Z,33.33
2018-07-13T04:56:48.353Z,30.77
2018-07-13T04:59:19.318Z,27.90
2018-07-13T05:01:50.381Z,26.30
2018-07-13T05:04:21.759Z,29.40
2018-07-13T05:06:52.854Z,29.83
2018-07-13T05:09:28.734Z,27.83
2018-07-13T05:12:14.691Z,30.80
2018-07-13T05:15:03.663Z,38.53
2018-07-13T05:17:51.030Z,34.10
2018-07-13T05:20:47.126Z,32.50
2018-07-13T05:23:35.168Z,26.57
2018-07-13T05:26:19.449Z,39.80
2018-07-13T05:29:07.816Z,34.10
2018-07-13T05:31:52.393Z,28.57
2018-07-13T05:34:35.704Z,33.33
2018-07-13T05:37:18.969Z,28.03
2018-07-13T05:39:59.831Z,26.73
2018-07-13T05:42:41.962Z,25.83
2018-07-13T05:45:27.797Z,25.70
2018-07-13T05:48:00.105Z,29.93
2018-07-13T05:50:31.008Z,27.73
2018-07-13T05:53:03.331Z,28.13
2018-07-13T05:55:34.375Z,29.43
2018-07-13T05:58:05.481Z,30.67
2018-07-13T06:00:36.724Z,26.00
2018-07-13T06:03:07.901Z,31.50
2018-07-13T06:05:39.504Z,25.43
2018-07-13T06:08:10.874Z,31.40
2018-07-13T06:10:41.723Z,25.40
2018-07-13T06:13:12.959Z,26.57
2018-07-13T06:15:43.933Z,27.93
2018-07-13T06:18:14.607Z,25.53
2018-07-13T06:20:45.489Z,26.33
2018-07-13T06:23:16.521Z,26.73
2018-07-13T06:25:47.518Z,23.63
2018-07-13T06:28:18.287Z,28.50
2018-07-13T06:30:49.543Z,27.00
2018-07-13T06:33:20.736Z,26.47
2018-07-13T06:35:52.558Z,25.57
2018-07-13T06:38:24.979Z,22.57
2018-07-13T06:40:55.941Z,19.97
2018-07-13T06:43:27.598Z,26.97
2018-07-13T06:45:58.631Z,27.53
2018-07-13T06:48:30.083Z,26.47
2018-07-13T06:51:00.968Z,26.90
2018-07-13T06:53:32.232Z,21.10
2018-07-13T06:56:03.227Z,25.10
2018-07-13T06:58:44.287Z,23.00
2018-07-13T07:01:15.053Z,26.90
2018-07-13T07:04:54.976Z,22.73
2018-07-13T07:07:27.566Z,25.47
2018-07-13T07:09:59.542Z,26.70
2018-07-13T07:12:52.534Z,28.30
2018-07-13T07:15:24.481Z,24.33
2018-07-13T07:17:56.682Z,24.20
2018-07-13T07:20:27.518Z,22.53
2018-07-13T07:22:58.710Z,19.13
2018-07-13T07:25:29.569Z,24.73
2018-07-13T07:27:59.796Z,25.70
2018-07-13T07:30:31.192Z,24.73
2018-07-13T07:33:02.135Z,22.47
2018-07-13T07:35:33.247Z,26.03
2018-07-13T07:38:04.378Z,29.70
2018-07-13T07:40:35.149Z,27.53
2018-07-13T07:43:06.266Z,27.10
2018-07-13T07:45:37.534Z,30.03
2018-07-13T07:48:08.518Z,23.57
2018-07-13T07:50:39.218Z,20.40
2018-07-13T07:53:10.470Z,30.53
2018-07-13T07:55:41.520Z,21.03
2018-07-13T07:58:12.296Z,30.17
2018-07-13T08:00:43.054Z,22.67
2018-07-13T08:03:13.728Z,18.70
2018-07-13T08:05:44.500Z,21.80
2018-07-13T08:08:15.760Z,18.97
2018-07-13T08:10:46.700Z,19.57
2018-07-13T08:13:17.479Z,24.63
2018-07-13T08:15:48.283Z,21.20
2018-07-13T08:18:19.318Z,17.87
2018-07-13T08:20:50.703Z,19.73
2018-07-13T08:23:22.022Z,17.87
2018-07-13T08:25:53.211Z,17.00
2018-07-13T08:28:24.446Z,30.97
2018-07-13T08:31:00.040Z,23.67
2018-07-13T08:33:30.765Z,21.43
2018-07-13T08:36:01.815Z,21.77
2018-07-13T08:38:33.047Z,18.77
2018-07-13T08:41:04.191Z,18.83
2018-07-13T08:43:34.304Z,19.30
2018-07-13T08:46:05.380Z,19.50
2018-07-13T08:48:36.562Z,21.30
2018-07-13T08:51:07.639Z,21.17
2018-07-13T08:53:38.462Z,21.33
2018-07-13T08:56:09.875Z,18.83
2018-07-13T08:58:41.176Z,23.10
2018-07-13T09:01:11.252Z,23.17
2018-07-13T09:03:41.866Z,15.83
2018-07-13T09:06:12.568Z,15.23
2018-07-13T09:08:43.590Z,18.43
2018-07-13T09:11:14.627Z,14.80
2018-07-13T09:13:45.500Z,15.30
2018-07-13T09:16:16.832Z,15.87
2018-07-13T09:18:48.251Z,15.27
2018-07-13T09:21:19.351Z,18.50
2018-07-13T09:23:50.154Z,13.03
2018-07-13T09:26:21.598Z,21.10
2018-07-13T09:28:52.226Z,14.77
2018-07-13T09:31:23.085Z,15.17
2018-07-13T09:33:53.977Z,12.57
2018-07-13T09:36:25.706Z,20.67
2018-07-13T09:38:56.360Z,11.00
2018-07-13T09:41:27.656Z,12.60
2018-07-13T09:43:58.688Z,9.00
2018-07-13T09:46:29.820Z,11.47
2018-07-13T09:49:01.470Z,13.23
2018-07-13T09:51:32.892Z,11.97
2018-07-13T09:54:03.821Z,14.67
2018-07-13T09:56:34.826Z,10.40
2018-07-13T09:59:05.976Z,13.83
2018-07-13T10:01:37.285Z,13.77
2018-07-13T10:04:08.283Z,14.30
2018-07-13T10:06:39.353Z,12.43
2018-07-13T10:09:10.592Z,11.70
2018-07-13T10:11:41.758Z,12.73
2018-07-13T10:14:12.471Z,12.03
2018-07-13T10:16:43.219Z,12.80
2018-07-13T10:19:14.649Z,13.30
2018-07-13T10:21:46.698Z,14.00
2018-07-13T10:24:19.020Z,12.20
2018-07-13T10:26:50.559Z,14.97
2018-07-13T10:29:24.302Z,11.87
2018-07-13T10:31:54.456Z,10.30
2018-07-13T10:34:25.858Z,10.90
2018-07-13T10:36:59.191Z,9.80
2018-07-13T10:39:32.379Z,10.77
2018-07-13T10:42:03.655Z,12.30
2018-07-13T10:44:35.491Z,12.77
2018-07-13T10:47:06.852Z,11.50
2018-07-13T10:49:37.876Z,15.70
2018-07-13T10:52:08.770Z,12.87
2018-07-13T10:54:40.465Z,14.87
2018-07-13T10:57:11.684Z,12.50
2018-07-13T10:59:42.544Z,10.93
2018-07-13T11:02:13.254Z,11.20
2018-07-13T11:04:44.115Z,8.80
2018-07-13T11:07:14.895Z,10.70
2018-07-13T11:09:45.746Z,11.20
2018-07-13T11:12:16.506Z,13.60
2018-07-13T11:14:47.294Z,10.90
2018-07-13T11:17:18.376Z,8.10
2018-07-13T11:19:49.545Z,11.70
2018-07-13T11:22:20.287Z,11.53
2018-07-13T11:24:51.823Z,14.63
2018-07-13T11:27:23.935Z,7.93
2018-07-13T11:29:54.567Z,11.20
2018-07-13T11:32:25.252Z,11.57
2018-07-13T11:34:56.026Z,6.77
2018-07-13T11:37:27.888Z,8.93
2018-07-13T11:39:58.023Z,9.83
2018-07-13T11:42:28.525Z,9.73
2018-07-13T11:44:59.178Z,9.77
2018-07-13T11:47:30.170Z,10.00
2018-07-13T11:50:01.086Z,14.07
2018-07-13T11:52:31.801Z,8.37
2018-07-13T11:55:02.796Z,8.20
2018-07-13T11:57:34.120Z,12.30
2018-07-13T12:00:06.020Z,9.70
2018-07-13T12:02:37.757Z,7.57
2018-07-13T12:05:08.355Z,7.03
2018-07-13T12:07:39.132Z,7.83
2018-07-13T12:10:10.398Z,7.97
2018-07-13T12:12:41.424Z,8.43
2018-07-13T12:15:12.337Z,6.57
2018-07-13T12:17:43.130Z,10.60
2018-07-13T12:20:14.233Z,7.97
2018-07-13T12:22:45.217Z,9.50
2018-07-13T12:25:16.467Z,8.63
2018-07-13T12:27:47.368Z,7.43
2018-07-13T12:30:18.179Z,13.57
2018-07-13T12:32:49.009Z,8.33
2018-07-13T12:35:19.907Z,12.23
2018-07-13T12:37:50.457Z,11.10
2018-07-13T12:40:21.674Z,9.40
2018-07-13T12:42:52.247Z,10.80
2018-07-13T12:45:23.113Z,8.73
2018-07-13T12:47:53.380Z,9.77
2018-07-13T12:50:24.854Z,7.67
2018-07-13T12:52:55.795Z,9.70
2018-07-13T12:55:26.903Z,9.10
2018-07-13T12:57:57.742Z,8.10
2018-07-13T13:00:28.543Z,8.83
2018-07-13T13:02:59.175Z,8.40
2018-07-13T13:05:29.863Z,12.23
2018-07-13T13:08:00.739Z,11.80
2018-07-13T13:10:32.026Z,13.63
2018-07-13T13:13:02.851Z,13.03
2018-07-13T13:15:33.038Z,10.90
2018-07-13T13:18:04.264Z,13.93
2018-07-13T13:20:35.289Z,9.17
2018-07-13T13:23:06.130Z,10.00
2018-07-13T13:25:36.773Z,7.20
2018-07-13T13:28:07.679Z,8.60
2018-07-13T13:30:38.826Z,9.27
2018-07-13T13:33:09.955Z,6.83
2018-07-13T13:35:41.434Z,9.40
2018-07-13T13:38:12.239Z,7.20
2018-07-13T13:40:43.149Z,7.03
2018-07-13T13:43:13.888Z,6.60
2018-07-13T13:45:44.680Z,8.30
2018-07-13T13:48:21.880Z,6.90
2018-07-13T13:50:52.735Z,8.53
2018-07-13T13:53:23.596Z,5.97
2018-07-13T13:55:54.621Z,7.70
2018-07-13T13:58:25.339Z,6.10
2018-07-13T14:00:56.067Z,7.50
2018-07-13T14:03:26.818Z,5.93
2018-07-13T14:05:57.521Z,12.53
2018-07-13T14:08:28.276Z,6.53
2018-07-13T14:10:59.717Z,6.43
2018-07-13T14:13:30.421Z,8.40
2018-07-13T14:16:00.668Z,5.67
2018-07-13T14:18:31.324Z,7.50
2018-07-13T14:21:02.486Z,9.10
2018-07-13T14:23:33.339Z,9.67
2018-07-13T14:26:04.318Z,7.27
2018-07-13T14:28:35.257Z,9.83
2018-07-13T14:31:06.219Z,12.73
2018-07-13T14:33:37.310Z,9.57
2018-07-13T14:36:08.166Z,7.83
2018-07-13T14:38:38.742Z,8.87
2018-07-13T14:41:09.476Z,5.80
2018-07-13T14:43:40.474Z,6.17
2018-07-13T14:46:11.478Z,6.93
2018-07-13T14:48:42.123Z,6.57
2018-07-13T14:51:13.031Z,5.23
2018-07-13T14:53:43.834Z,6.30
2018-07-13T14:56:14.910Z,6.23
2018-07-13T14:58:45.758Z,5.63
2018-07-13T15:01:16.595Z,8.50
2018-07-13T15:03:47.327Z,6.37
2018-07-13T15:06:18.937Z,5.87
2018-07-13T15:08:49.686Z,6.53
2018-07-13T15:11:20.629Z,5.87
2018-07-13T15:13:52.833Z,5.67
2018-07-13T15:16:23.433Z,5.40
2018-07-13T15:18:53.986Z,6.87
2018-07-13T15:21:24.823Z,6.10
2018-07-13T15:23:55.817Z,8.77
2018-07-13T15:26:26.648Z,10.83
2018-07-13T15:28:57.669Z,7.43
2018-07-13T15:31:28.618Z,8.70
2018-07-13T15:33:59.924Z,7.40
2018-07-13T15:36:32.278Z,9.83
2018-07-13T15:39:02.980Z,8.77
2018-07-13T15:41:34.195Z,8.27
2018-07-13T15:44:05.116Z,7.40
2018-07-13T15:46:35.677Z,9.00
2018-07-13T15:49:06.605Z,7.10
2018-07-13T15:51:37.855Z,6.30
2018-07-13T15:54:08.715Z,8.73
2018-07-13T15:56:39.286Z,7.77
2018-07-13T15:59:10.434Z,7.93
2018-07-13T16:01:41.323Z,8.47
2018-07-13T16:04:12.045Z,8.40
2018-07-13T16:06:43.286Z,7.57
2018-07-13T16:09:14.178Z,7.50
2018-07-13T16:11:45.055Z,6.27
2018-07-13T16:14:15.906Z,5.70
2018-07-13T16:16:46.625Z,6.27
2018-07-13T16:19:17.954Z,5.10
2018-07-13T16:21:49.282Z,7.37
2018-07-13T16:24:20.158Z,8.03
2018-07-13T16:26:50.806Z,6.80
2018-07-13T16:29:21.423Z,9.40
2018-07-13T16:31:52.282Z,6.23
2018-07-13T16:34:23.114Z,6.60
2018-07-13T16:36:54.055Z,7.33
2018-07-13T16:39:24.763Z,12.40
2018-07-13T16:41:55.554Z,9.83
2018-07-13T16:44:25.973Z,7.77
2018-07-13T16:46:56.592Z,10.50
2018-07-13T16:49:27.323Z,6.17
2018-07-13T16:51:57.476Z,7.67
2018-07-13T16:54:28.698Z,11.87
2018-07-13T16:56:59.367Z,8.07
2018-07-13T16:59:30.227Z,8.33
2018-07-13T17:02:00.818Z,8.00
2018-07-13T17:04:32.992Z,8.30
2018-07-13T17:07:03.084Z,10.83
2018-07-13T17:09:34.041Z,7.23
2018-07-13T17:12:04.968Z,9.30
2018-07-13T17:14:35.735Z,7.53
2018-07-13T17:17:05.908Z,10.60
2018-07-13T17:19:36.602Z,9.77
2018-07-13T17:22:07.854Z,7.93
2018-07-13T17:24:39.142Z,11.60
2018-07-13T17:27:09.919Z,8.13
2018-07-13T17:29:40.282Z,9.10
2018-07-13T17:32:10.959Z,7.60
2018-07-13T17:34:42.062Z,8.30
2018-07-13T17:37:12.903Z,9.67
2018-07-13T17:39:45.234Z,14.30
2018-07-13T17:42:16.034Z,8.70
2018-07-13T17:44:46.918Z,8.40
2018-07-13T17:47:17.790Z,8.43
2018-07-13T17:49:48.758Z,6.67
2018-07-13T17:52:19.495Z,6.90
2018-07-13T17:54:50.556Z,5.53
2018-07-13T17:57:21.995Z,6.80
2018-07-13T17:59:57.505Z,8.23
2018-07-13T18:02:30.060Z,6.57
2018-07-13T18:05:01.255Z,5.97
2018-07-13T18:07:32.106Z,6.70
2018-07-13T18:10:03.144Z,11.03
2018-07-13T18:12:34.038Z,8.97
2018-07-13T18:15:05.040Z,7.40
2018-07-13T18:17:36.040Z,5.97
2018-07-13T18:20:07.194Z,6.87
2018-07-13T18:22:38.082Z,6.77
2018-07-13T18:25:09.556Z,7.07
2018-07-13T18:27:40.546Z,5.70
2018-07-13T18:30:11.354Z,11.07
2018-07-13T18:32:42.416Z,7.60
2018-07-13T18:35:13.018Z,6.23
2018-07-13T18:37:43.842Z,5.53
2018-07-13T18:40:15.148Z,5.60
2018-07-13T18:42:46.118Z,7.70
2018-07-13T18:45:17.099Z,9.63
2018-07-13T18:47:47.945Z,7.27
2018-07-13T18:50:19.003Z,5.93
2018-07-13T18:52:50.249Z,6.07
2018-07-13T18:55:20.804Z,7.20
2018-07-13T18:57:53.609Z,6.30
2018-07-13T19:00:24.954Z,7.80
2018-07-13T19:02:56.119Z,7.33
2018-07-13T19:05:27.222Z,6.17
2018-07-13T19:07:58.199Z,8.70
2018-07-13T19:10:29.579Z,6.17
2018-07-13T19:13:00.427Z,5.63
2018-07-13T19:15:31.106Z,8.33
2018-07-13T19:18:01.230Z,7.13
2018-07-13T19:20:31.898Z,5.60
2018-07-13T19:23:05.475Z,6.20
2018-07-13T19:25:35.737Z,6.20
2018-07-13T19:28:06.855Z,7.00
2018-07-13T19:30:37.976Z,7.07
2018-07-13T19:33:09.247Z,8.20
2018-07-13T19:35:40.265Z,9.00
2018-07-13T19:38:11.334Z,7.10
2018-07-13T19:40:42.188Z,5.30
2018-07-13T19:43:13.160Z,6.60
2018-07-13T19:45:43.706Z,9.67
2018-07-13T19:48:15.221Z,5.43
2018-07-13T19:50:46.235Z,9.53
2018-07-13T19:53:17.697Z,6.20
2018-07-13T19:55:48.426Z,7.17
2018-07-13T19:58:19.290Z,8.33
2018-07-13T20:00:50.302Z,12.30
2018-07-13T20:03:21.067Z,6.27
2018-07-13T20:05:51.910Z,7.10
2018-07-13T20:08:23.014Z,6.40
2018-07-13T20:10:54.042Z,8.17
2018-07-13T20:13:25.059Z,9.50
2018-07-13T20:15:56.262Z,7.50
2018-07-13T20:18:31.409Z,6.43
2018-07-13T20:21:02.556Z,6.90
2018-07-13T20:23:34.006Z,6.50
2018-07-13T20:26:05.210Z,8.83
2018-07-13T20:28:35.895Z,8.87
2018-07-13T20:31:09.049Z,10.40
2018-07-13T20:33:40.128Z,10.53
2018-07-13T20:36:11.361Z,10.33
2018-07-13T20:38:42.598Z,11.47
2018-07-13T20:41:13.496Z,10.23
2018-07-13T20:43:44.513Z,11.67
2018-07-13T20:46:15.875Z,13.30
2018-07-13T20:48:47.326Z,12.50
2018-07-13T20:51:18.530Z,8.80
2018-07-13T20:53:49.371Z,9.87
2018-07-13T20:56:20.271Z,11.90
2018-07-13T20:58:52.645Z,8.90
2018-07-13T21:01:23.730Z,11.77
2018-07-13T21:03:54.426Z,9.17
2018-07-13T21:06:24.769Z,11.70
2018-07-13T21:08:56.040Z,9.53
2018-07-13T21:11:26.072Z,12.50
2018-07-13T21:13:56.858Z,10.30
2018-07-13T21:16:27.786Z,16.37
2018-07-13T21:18:59.065Z,10.83
2018-07-13T21:21:30.453Z,11.70
2018-07-13T21:24:01.322Z,12.17
2018-07-13T21:26:31.992Z,12.07
2018-07-13T21:29:03.303Z,10.90
2018-07-13T21:31:34.079Z,12.43
2018-07-13T21:34:04.682Z,12.30
2018-07-13T21:36:37.076Z,13.20
2018-07-13T21:39:08.665Z,18.83
2018-07-13T21:41:39.367Z,11.93
2018-07-13T21:44:10.370Z,14.40
2018-07-13T21:46:40.975Z,10.57
2018-07-13T21:49:11.222Z,9.73
2018-07-13T21:51:41.983Z,10.83
2018-07-13T21:54:13.398Z,11.47
2018-07-13T21:56:44.158Z,12.90
2018-07-13T21:59:15.423Z,10.40
2018-07-13T22:01:46.028Z,10.90
2018-07-13T22:04:16.559Z,11.37
2018-07-13T22:06:47.499Z,11.80
2018-07-13T22:09:18.818Z,13.80
2018-07-13T22:11:49.647Z,12.27
2018-07-13T22:14:20.405Z,9.40
2018-07-13T22:16:51.354Z,9.03
2018-07-13T22:19:22.102Z,15.00
2018-07-13T22:21:52.915Z,10.07
2018-07-13T22:24:24.243Z,11.73
2018-07-13T22:26:55.229Z,12.63
2018-07-13T22:29:27.089Z,13.83
2018-07-13T22:31:58.498Z,13.33
2018-07-13T22:34:29.361Z,8.33
2018-07-13T22:37:00.129Z,13.00
2018-07-13T22:39:30.847Z,15.10
2018-07-13T22:42:01.599Z,11.63
2018-07-13T22:44:32.531Z,16.37
2018-07-13T22:47:03.390Z,11.27
2018-07-13T22:49:34.284Z,12.97
2018-07-13T22:52:05.207Z,12.10
2018-07-13T22:54:36.471Z,15.40
2018-07-13T22:57:07.267Z,12.57
2018-07-13T22:59:38.276Z,13.00
2018-07-13T23:02:10.603Z,10.70
2018-07-13T23:04:41.538Z,14.33
2018-07-13T23:07:12.422Z,14.27
2018-07-13T23:09:43.706Z,11.90
2018-07-13T23:12:14.566Z,11.27
2018-07-13T23:14:45.393Z,12.63
2018-07-13T23:17:16.151Z,10.60
2018-07-13T23:19:47.074Z,10.10
2018-07-13T23:22:17.922Z,12.80
2018-07-13T23:24:48.847Z,10.00
2018-07-13T23:27:19.837Z,11.57
2018-07-13T23:29:50.723Z,11.20
2018-07-13T23:32:21.275Z,14.53
2018-07-13T23:34:52.224Z,11.60
2018-07-13T23:37:23.107Z,11.17
2018-07-13T23:39:53.725Z,10.90
2018-07-13T23:42:24.467Z,13.63
2018-07-13T23:44:55.219Z,12.67
2018-07-13T23:47:26.216Z,14.10
2018-07-13T23:49:57.018Z,15.90
2018-07-13T23:52:27.878Z,16.50
2018-07-13T23:54:59.986Z,16.87
2018-07-13T23:57:30.805Z,18.90
